Time;durP1;ratioP1;P1;durP2;ratioP2;P2;SDS_P1;SDS_P2;PMS_P1;PMS_P2;Temp;Humidity;BMP_temperature;BMP_pressure;BME280_temperature;BME280_humidity;BME280_pressure;Samples;Min_cycle;Max_cycle;Signal;HPM_P1;HPM_P2
2021/06/13 00:00:27;;;;;;;11.93;7.58;;;;;;;14.51;94.48;99279.61;1729241;83;21092;-87
2021/06/13 00:02:54;;;;;;;12.00;5.60;;;;;;;14.50;94.68;99277.45;1728795;83;22279;-87
2021/06/13 00:05:21;;;;;;;8.65;5.42;;;;;;;14.50;94.94;99271.31;1709877;83;21091;-86
2021/06/13 00:07:47;;;;;;;8.68;5.20;;;;;;;14.52;95.02;99261.46;1680073;84;21614;-88
2021/06/13 00:10:16;;;;;;;13.22;7.15;;;;;;;14.51;95.13;99257.09;1685611;82;21017;-88
2021/06/13 00:12:44;;;;;;;7.28;5.30;;;;;;;14.53;95.39;99256.52;1729527;83;21100;-88
2021/06/13 00:15:17;;;;;;;8.53;5.20;;;;;;;14.55;95.36;99250.20;1721157;82;21057;-88
2021/06/13 00:17:45;;;;;;;;;;;;;;;14.57;95.41;99247.45;1716443;83;21074;-88
2021/06/13 00:20:15;;;;;;;14.28;8.10;;;;;;;14.58;95.55;99245.16;1713866;83;20752;-85
2021/06/13 00:22:42;;;;;;;13.03;7.70;;;;;;;14.57;96.03;99241.67;1719063;80;21076;-89
2021/06/13 00:25:12;;;;;;;11.10;6.53;;;;;;;14.59;96.03;99247.72;1702022;80;21641;-88
2021/06/13 00:27:39;;;;;;;11.00;7.85;;;;;;;14.60;96.07;99244.59;1725611;82;21158;-87
2021/06/13 00:30:09;;;;;;;14.83;8.20;;;;;;;14.60;96.12;99236.63;1718933;83;21065;-88
2021/06/13 00:32:37;;;;;;;10.08;7.47;;;;;;;14.60;95.79;99233.98;1690279;83;21066;-86
2021/06/13 00:35:05;;;;;;;13.05;7.28;;;;;;;14.57;95.69;99231.07;1715922;83;21038;-87
2021/06/13 00:37:33;;;;;;;11.25;8.20;;;;;;;14.54;95.79;99228.64;1715411;83;21065;-88
2021/06/13 00:40:00;;;;;;;11.35;7.65;;;;;;;14.55;95.82;99232.13;1714632;82;21119;-88
2021/06/13 00:42:28;;;;;;;11.68;5.67;;;;;;;14.53;95.82;99234.00;1697960;82;21087;-87
2021/06/13 00:44:55;;;;;;;11.80;6.33;;;;;;;14.48;95.80;99224.55;1681452;82;21000;-88
2021/06/13 00:47:22;;;;;;;13.20;6.12;;;;;;;14.47;95.79;99225.52;1681229;82;21096;-88
2021/06/13 00:49:49;;;;;;;10.55;6.40;;;;;;;14.44;96.16;99223.06;1679586;85;21039;-88
2021/06/13 00:52:17;;;;;;;11.40;6.30;;;;;;;14.42;96.20;99222.34;1680227;85;21148;-87
2021/06/13 00:54:46;;;;;;;8.48;6.10;;;;;;;14.40;96.24;99214.97;1678665;85;21111;-87
2021/06/13 00:57:13;;;;;;;6.92;5.65;;;;;;;14.37;96.37;99213.83;1680185;85;21015;-90
2021/06/13 00:59:40;;;;;;;10.05;5.87;;;;;;;14.34;96.32;99212.72;1678258;84;21095;-90
2021/06/13 01:02:09;;;;;;;11.95;8.55;;;;;;;14.33;96.47;99214.98;1678129;85;21024;-88
2021/06/13 01:04:37;;;;;;;13.05;9.03;;;;;;;14.29;96.47;99208.22;1678408;84;21118;-88
2021/06/13 01:07:32;;;;;;;12.03;9.33;;;;;;;14.26;96.42;99203.98;1679087;85;21017;-88
2021/06/13 01:10:03;;;;;;;14.40;8.80;;;;;;;14.24;96.32;99197.06;1681278;85;21630;-87
2021/06/13 01:12:42;;;;;;;11.57;8.33;;;;;;;14.17;95.64;99193.13;1679110;84;21075;-88
2021/06/13 01:15:16;;;;;;;15.10;8.85;;;;;;;14.10;95.34;99199.78;1687832;83;21080;-87
2021/06/13 01:18:21;;;;;;;8.68;6.12;;;;;;;14.02;95.29;99189.72;1705024;84;21194;-87
2021/06/13 01:20:55;;;;;;;11.88;7.97;;;;;;;13.94;95.40;99184.94;1705111;84;21547;-89
2021/06/13 01:24:06;;;;;;;14.10;9.08;;;;;;;13.89;95.58;99177.75;1704715;82;21550;-88
2021/06/13 01:26:42;;;;;;;11.80;8.43;;;;;;;13.84;95.68;99174.56;1679627;84;21009;-87
2021/06/13 01:29:15;;;;;;;9.85;8.18;;;;;;;13.78;95.92;99168.34;1705102;84;21071;-87
2021/06/13 01:31:56;;;;;;;6.05;4.58;;;;;;;13.70;96.13;99162.23;1724703;83;21630;-88
2021/06/13 01:34:31;;;;;;;8.58;5.95;;;;;;;13.66;96.23;99161.22;1734866;82;21090;-88
2021/06/13 01:37:01;;;;;;;9.03;6.58;;;;;;;13.63;96.93;99159.14;1709899;82;21061;-87
2021/06/13 01:39:29;;;;;;;10.53;7.95;;;;;;;13.60;97.30;99162.48;1709467;82;21133;-87
2021/06/13 01:42:01;;;;;;;12.28;7.97;;;;;;;13.55;97.87;99157.48;1734460;82;21397;-87
2021/06/13 01:44:30;;;;;;;15.53;9.03;;;;;;;13.56;98.47;99156.52;1731581;82;21467;-86
2021/06/13 01:47:02;;;;;;;15.25;10.00;;;;;;;13.55;98.82;99162.78;1723207;79;21111;-87
2021/06/13 01:49:29;;;;;;;15.05;9.33;;;;;;;13.54;99.17;99158.42;1719767;83;21081;-86
2021/06/13 01:51:58;;;;;;;13.95;9.43;;;;;;;13.57;99.71;99160.02;1718909;83;21034;-87
2021/06/13 01:54:31;;;;;;;17.82;10.48;;;;;;;13.56;99.91;99155.20;1719014;83;21124;-88
2021/06/13 01:57:03;;;;;;;12.53;7.92;;;;;;;13.57;100.00;99152.08;1723277;83;21048;-88
2021/06/13 01:59:32;;;;;;;11.85;8.00;;;;;;;13.56;100.00;99151.23;1721506;83;21140;-87
2021/06/13 02:02:04;;;;;;;10.18;7.35;;;;;;;13.56;100.00;99149.91;1719423;83;21022;-89
2021/06/13 02:04:33;;;;;;;12.28;6.22;;;;;;;13.55;100.00;99143.39;1720020;83;20991;-87
2021/06/13 02:07:03;;;;;;;12.88;8.30;;;;;;;13.53;100.00;99143.51;1697803;83;21074;-88
2021/06/13 02:09:33;;;;;;;14.75;8.75;;;;;;;13.54;100.00;99143.87;1722170;83;21120;-89
2021/06/13 02:12:04;;;;;;;13.45;9.73;;;;;;;13.54;100.00;99143.87;1721443;82;21132;-86
2021/06/13 02:14:34;;;;;;;15.15;10.25;;;;;;;13.55;100.00;99146.91;1695262;83;21025;-87
2021/06/13 02:17:05;;;;;;;;;;;;;;;13.56;100.00;99144.62;1729311;83;21552;-89
2021/06/13 02:19:34;;;;;;;11.35;9.38;;;;;;;13.57;100.00;99141.05;1727908;83;20137;-87
2021/06/13 02:22:04;;;;;;;13.13;9.03;;;;;;;13.61;100.00;99135.91;1733279;81;21101;-88
2021/06/13 02:24:36;;;;;;;14.95;9.90;;;;;;;13.67;100.00;99136.48;1760233;81;20983;-87
2021/06/13 02:27:04;;;;;;;14.63;9.50;;;;;;;13.71;100.00;99131.33;1759423;81;21015;-86
2021/06/13 02:29:32;;;;;;;12.80;9.68;;;;;;;13.77;100.00;99132.27;1731049;82;21124;-87
2021/06/13 02:31:59;;;;;;;12.35;9.98;;;;;;;13.83;100.00;99130.06;1706728;81;21059;-87
2021/06/13 02:34:29;;;;;;;9.90;8.18;;;;;;;13.91;100.00;99126.89;1758383;81;21154;-87
2021/06/13 02:36:59;;;;;;;11.33;7.87;;;;;;;13.97;100.00;99122.52;1758661;81;21046;-86
2021/06/13 02:39:27;;;;;;;;;;;;;;;14.08;100.00;99123.14;1763138;81;21044;-87
2021/06/13 02:41:56;;;;;;;10.95;8.33;;;;;;;14.17;100.00;99118.55;1733559;81;20220;-87
2021/06/13 02:44:23;;;;;;;8.18;7.05;;;;;;;14.25;100.00;99118.01;1710846;82;21108;-88
2021/06/13 02:46:51;;;;;;;9.70;7.30;;;;;;;14.36;100.00;99115.47;1764466;81;21146;-88
2021/06/13 02:49:18;;;;;;;11.08;8.58;;;;;;;14.47;100.00;99115.59;1765889;81;21025;-88
2021/06/13 02:52:04;;;;;;;11.43;7.90;;;;;;;14.55;100.00;99116.41;1763118;81;21064;-87
2021/06/13 02:54:32;;;;;;;12.53;9.68;;;;;;;14.64;100.00;99114.92;1762901;81;21084;-87
2021/06/13 02:57:01;;;;;;;15.93;10.78;;;;;;;14.73;100.00;99116.08;1763742;81;21536;-85
2021/06/13 02:59:55;;;;;;;;;;;;;;;14.80;100.00;99116.86;1768683;81;21178;-88
2021/06/13 03:02:28;;;;;;;12.50;10.32;;;;;;;14.89;99.84;99117.53;1764647;81;20463;-88
2021/06/13 03:05:02;;;;;;;12.43;9.33;;;;;;;14.98;99.46;99119.17;1764034;81;21084;-88
2021/06/13 03:07:30;;;;;;;12.80;9.10;;;;;;;15.06;98.79;99118.13;1764241;81;21063;-87
2021/06/13 03:10:00;;;;;;;15.00;10.13;;;;;;;15.14;98.21;99118.44;1738642;80;21041;-88
2021/06/13 03:12:27;;;;;;;15.88;9.43;;;;;;;15.24;98.05;99111.50;1735141;81;22048;-85
2021/06/13 03:14:54;;;;;;;11.03;9.43;;;;;;;15.36;97.58;99106.27;1728192;81;21086;-85
2021/06/13 03:17:23;;;;;;;13.60;9.48;;;;;;;15.46;96.72;99109.92;1737868;81;21057;-86
2021/06/13 03:19:50;;;;;;;17.67;10.72;;;;;;;15.53;95.77;99104.55;1737208;81;21062;-85
2021/06/13 03:22:19;;;;;;;14.38;8.75;;;;;;;15.64;95.63;99105.91;1765955;81;21097;-85
2021/06/13 03:24:48;;;;;;;15.18;10.60;;;;;;;15.75;94.93;99096.34;1765613;81;21122;-84
2021/06/13 03:27:16;;;;;;;17.77;12.10;;;;;;;15.87;94.47;99092.77;1737477;81;21093;-86
2021/06/13 03:29:45;;;;;;;15.13;12.35;;;;;;;15.98;93.51;99095.45;1768754;81;21057;-87
2021/06/13 03:32:13;;;;;;;17.10;12.23;;;;;;;16.11;92.72;99098.88;1710178;82;21000;-87
2021/06/13 03:34:43;;;;;;;16.80;12.25;;;;;;;16.25;91.97;99097.82;1706787;84;21068;-86
2021/06/13 03:37:12;;;;;;;17.37;12.05;;;;;;;16.34;90.50;99088.30;1707921;84;21080;-88
2021/06/13 03:39:42;;;;;;;19.62;12.90;;;;;;;16.42;89.75;99091.19;1707385;84;21068;-89
2021/06/13 03:42:12;;;;;;;18.57;12.28;;;;;;;16.53;89.25;99091.20;1707208;84;21056;-90
2021/06/13 03:44:39;;;;;;;18.37;13.15;;;;;;;16.66;88.84;99094.25;1706805;84;21146;-90
2021/06/13 03:47:06;;;;;;;15.35;10.85;;;;;;;16.82;88.65;99097.88;1709916;82;21009;-90
2021/06/13 03:49:34;;;;;;;16.57;11.68;;;;;;;16.97;88.30;99094.84;1709988;82;21187;-88
2021/06/13 03:52:01;;;;;;;17.73;11.83;;;;;;;17.18;87.57;99094.09;1737463;82;21079;-89
2021/06/13 03:54:29;;;;;;;19.35;11.95;;;;;;;17.37;86.40;99099.63;1713891;82;21083;-91
2021/06/13 03:57:00;;;;;;;15.83;12.05;;;;;;;17.52;85.56;99096.18;1705560;84;21701;-89
2021/06/13 03:59:28;;;;;;;20.00;11.38;;;;;;;17.48;84.13;99080.59;1728279;82;26530;-92
2021/06/13 04:01:58;;;;;;;19.25;12.93;;;;;;;17.72;83.30;99099.86;1734304;82;21125;-92
2021/06/13 04:04:25;;;;;;;18.40;13.20;;;;;;;17.83;82.67;99107.00;1692151;84;21091;-94
2021/06/13 04:06:53;;;;;;;16.57;11.80;;;;;;;17.96;82.19;99106.80;1704280;84;20990;-91
2021/06/13 04:09:20;;;;;;;11.95;9.28;;;;;;;18.12;82.32;99103.20;1723288;82;21079;-93
2021/06/13 04:11:51;;;;;;;13.00;8.80;;;;;;;18.34;80.11;99104.06;1722228;82;21008;-90
2021/06/13 04:14:18;;;;;;;15.13;8.70;;;;;;;18.45;78.49;99095.98;1713567;82;21519;-92
2021/06/13 04:16:48;;;;;;;12.13;8.00;;;;;;;18.50;77.22;99096.92;1728483;79;21524;-92
2021/06/13 04:19:16;;;;;;;14.60;8.28;;;;;;;18.49;77.45;99094.72;1742861;82;21132;-93
2021/06/13 04:21:45;;;;;;;11.45;7.65;;;;;;;18.52;77.61;99090.48;1733534;82;21544;-93
2021/06/13 04:24:15;;;;;;;10.68;7.28;;;;;;;18.68;77.30;99096.66;1746884;82;21029;-94
2021/06/13 04:26:48;;;;;;;9.55;7.12;;;;;;;18.81;75.72;99099.12;1746051;81;21144;-92
2021/06/13 04:29:18;;;;;;;11.40;7.28;;;;;;;18.88;75.48;99089.59;1748998;82;21061;-94
2021/06/13 04:31:46;;;;;;;11.97;6.72;;;;;;;18.92;75.19;99092.35;1733244;81;21788;-92
2021/06/13 04:34:15;;;;;;;8.88;6.78;;;;;;;19.08;75.64;99091.34;1750894;82;20975;-90
2021/06/13 04:39:27;;;;;;;14.07;8.60;;;;;;;19.44;73.17;99085.03;1783796;79;22706;-73
2021/06/13 04:41:55;;;;;;;10.85;7.17;;;;;;;19.53;72.35;99077.16;1781889;80;21114;-72
2021/06/13 04:44:21;;;;;;;13.85;7.85;;;;;;;19.69;70.84;99076.13;1759800;80;21153;-72
2021/06/13 04:46:49;;;;;;;9.55;7.37;;;;;;;19.82;70.53;99075.36;1764977;80;21070;-72
2021/06/13 04:49:16;;;;;;;11.57;7.85;;;;;;;20.00;70.09;99069.31;1766146;80;21547;-73
2021/06/13 04:51:44;;;;;;;15.63;7.12;;;;;;;20.20;69.66;99061.62;1785988;80;21203;-75
2021/06/13 04:54:29;;;;;;;10.50;7.12;;;;;;;20.41;68.61;99052.05;1762837;80;21084;-72
2021/06/13 04:57:01;;;;;;;10.00;6.45;;;;;;;20.63;68.70;99057.55;1758321;81;21147;-71
2021/06/13 04:59:28;;;;;;;11.33;6.72;;;;;;;20.95;66.35;99050.92;1760012;80;21048;-70
2021/06/13 05:01:55;;;;;;;7.83;6.67;;;;;;;21.10;64.95;99049.44;1770419;80;21489;-72
2021/06/13 05:04:24;;;;;;;9.38;6.83;;;;;;;21.24;64.47;99051.25;1773716;80;21028;-71
2021/06/13 05:06:51;;;;;;;11.38;5.97;;;;;;;21.32;64.55;99054.00;1783008;80;21461;-72
2021/06/13 05:09:18;;;;;;;7.62;6.05;;;;;;;21.50;63.71;99053.55;1767756;80;21092;-71
2021/06/13 05:11:47;;;;;;;8.88;6.45;;;;;;;21.69;62.57;99055.22;1772290;80;21052;-73
2021/06/13 05:14:14;;;;;;;13.15;6.75;;;;;;;21.91;61.87;99053.91;1778910;80;21083;-72
2021/06/13 05:16:43;;;;;;;8.35;5.10;;;;;;;22.11;60.99;99051.02;1772138;80;21043;-71
2021/06/13 05:19:12;;;;;;;10.63;4.62;;;;;;;22.29;58.37;99048.33;1772599;80;21087;-71
2021/06/13 05:21:39;;;;;;;7.60;5.05;;;;;;;22.50;57.99;99047.94;1765731;80;21969;-72
2021/06/13 05:24:08;;;;;;;11.05;6.37;;;;;;;22.73;57.50;99053.11;1773040;80;21213;-72
2021/06/13 05:26:35;;;;;;;10.28;5.67;;;;;;;22.87;56.99;99053.00;1770990;80;21573;-72
2021/06/13 05:29:02;;;;;;;6.15;4.60;;;;;;;22.92;56.41;99049.83;1778390;80;21068;-74
2021/06/13 05:31:31;;;;;;;8.25;4.92;;;;;;;22.99;55.75;99050.89;1782692;80;21012;-72
2021/06/13 05:33:57;;;;;;;7.03;4.90;;;;;;;23.14;54.78;99047.89;1762763;80;21174;-74
2021/06/13 05:36:26;;;;;;;6.90;4.85;;;;;;;23.24;54.09;99047.27;1759386;80;21126;-73
2021/06/13 05:38:53;;;;;;;8.53;4.70;;;;;;;23.20;53.72;99051.27;1759376;80;21519;-72
2021/06/13 05:41:21;;;;;;;8.95;5.12;;;;;;;23.08;54.41;99051.25;1753093;80;21010;-73
2021/06/13 05:43:48;;;;;;;6.25;5.05;;;;;;;23.06;54.75;99062.66;1757036;80;20993;-72
2021/06/13 05:46:17;;;;;;;12.75;5.37;;;;;;;23.12;54.15;99053.95;1763314;80;21150;-71
2021/06/13 05:48:45;;;;;;;6.67;5.00;;;;;;;23.19;54.70;99054.98;1755335;80;21099;-74
2021/06/13 05:51:13;;;;;;;11.33;5.62;;;;;;;23.21;54.29;99055.66;1756899;80;22173;-74
2021/06/13 05:53:41;;;;;;;9.88;5.58;;;;;;;23.33;54.55;99052.63;1760251;80;21496;-72
2021/06/13 05:56:14;;;;;;;8.58;4.80;;;;;;;23.53;55.14;99049.98;1756941;80;21218;-71
2021/06/13 05:58:43;;;;;;;6.80;5.12;;;;;;;23.96;52.77;99050.70;1752726;80;21982;-72
2021/06/13 06:01:10;;;;;;;8.23;5.20;;;;;;;24.21;50.99;99049.34;1753037;80;21028;-71
2021/06/13 06:03:38;;;;;;;8.63;5.00;;;;;;;24.43;50.76;99043.25;1758101;80;21088;-71
2021/06/13 06:06:06;;;;;;;8.48;5.17;;;;;;;24.73;50.78;99038.11;1761915;80;21500;-72
2021/06/13 06:08:34;;;;;;;7.78;4.87;;;;;;;24.81;49.29;99043.47;1758807;80;21523;-74
2021/06/13 06:11:01;;;;;;;14.40;5.40;;;;;;;24.73;49.21;99045.35;1752546;80;21555;-72
2021/06/13 06:13:28;;;;;;;6.30;4.90;;;;;;;24.71;49.22;99045.55;1753691;80;21441;-72
2021/06/13 06:15:56;;;;;;;9.23;5.00;;;;;;;24.82;48.32;99042.45;1752794;80;21031;-73
2021/06/13 06:18:23;;;;;;;6.40;5.03;;;;;;;24.79;47.83;99047.36;1754086;80;21044;-73
2021/06/13 06:20:50;;;;;;;6.53;4.35;;;;;;;24.82;48.77;99042.45;1762588;80;21059;-72
2021/06/13 06:23:17;;;;;;;5.55;4.00;;;;;;;24.85;47.82;99047.50;1752797;80;21981;-72
2021/06/13 06:25:44;;;;;;;5.85;4.45;;;;;;;24.79;46.97;99045.50;1752780;80;21036;-75
2021/06/13 06:28:12;;;;;;;8.28;4.87;;;;;;;24.79;47.82;99042.80;1753414;80;21020;-79
2021/06/13 06:30:39;;;;;;;5.30;4.05;;;;;;;24.88;47.94;99049.83;1759913;80;21051;-79
2021/06/13 06:33:08;;;;;;;8.75;4.30;;;;;;;25.02;47.23;99042.86;1759467;80;21577;-77
2021/06/13 06:35:35;;;;;;;5.90;3.70;;;;;;;25.30;46.84;99041.05;1755092;80;21150;-79
2021/06/13 06:38:02;;;;;;;4.15;3.37;;;;;;;25.49;44.24;99049.18;1751729;80;21340;-80
2021/06/13 06:40:29;;;;;;;5.50;3.60;;;;;;;25.59;43.77;99047.10;1735551;80;21617;-76
2021/06/13 06:42:56;;;;;;;6.17;3.77;;;;;;;25.70;43.91;99040.45;1745174;80;21086;-78
2021/06/13 06:45:23;;;;;;;6.05;4.00;;;;;;;25.86;43.60;99037.62;1758656;80;21545;-79
2021/06/13 06:47:50;;;;;;;6.90;4.08;;;;;;;25.67;43.59;99044.33;1746895;80;21859;-78
2021/06/13 06:50:17;;;;;;;6.50;3.95;;;;;;;25.51;45.17;99041.75;1757869;80;21483;-78
2021/06/13 06:52:46;;;;;;;6.25;3.58;;;;;;;25.63;44.26;99044.38;1756525;80;21073;-80
2021/06/13 06:55:15;;;;;;;6.90;3.40;;;;;;;25.97;43.30;99044.45;1741050;80;21721;-80
2021/06/13 06:57:44;;;;;;;5.37;3.80;;;;;;;26.24;42.46;99047.58;1763404;80;21172;-79
2021/06/13 07:00:13;;;;;;;9.93;4.10;;;;;;;26.36;42.71;99040.70;1755650;80;21151;-80
2021/06/13 07:02:40;;;;;;;6.85;3.17;;;;;;;26.26;43.27;99042.84;1754515;80;21071;-79
2021/06/13 07:05:08;;;;;;;8.20;3.55;;;;;;;26.09;42.62;99052.45;1749736;80;21043;-79
2021/06/13 07:07:35;;;;;;;5.78;3.65;;;;;;;25.90;43.41;99054.30;1680862;83;21079;-77
2021/06/13 07:10:05;;;;;;;6.62;3.70;;;;;;;25.65;43.68;99042.83;1760676;80;21068;-79
2021/06/13 07:12:32;;;;;;;4.92;3.75;;;;;;;25.70;43.61;99048.03;1754944;80;21098;-78
2021/06/13 07:15:00;;;;;;;4.50;3.90;;;;;;;25.68;44.15;99054.11;1764709;80;21053;-77
2021/06/13 07:17:27;;;;;;;6.05;3.42;;;;;;;25.93;43.72;99053.95;1771626;80;21043;-79
2021/06/13 07:19:54;;;;;;;6.17;3.02;;;;;;;26.02;42.45;99050.16;1755220;80;21588;-79
2021/06/13 07:22:23;;;;;;;7.40;3.20;;;;;;;26.06;42.77;99046.05;1767774;80;21059;-80
2021/06/13 07:24:52;;;;;;;5.05;3.37;;;;;;;26.29;42.62;99042.46;1740317;80;21091;-78
2021/06/13 07:27:20;;;;;;;6.28;3.67;;;;;;;26.42;41.18;99048.06;1762657;80;21601;-76
2021/06/13 07:29:47;;;;;;;7.62;3.60;;;;;;;26.16;41.36;99041.25;1741586;80;22111;-78
2021/06/13 07:32:16;;;;;;;6.75;3.60;;;;;;;25.88;42.33;99049.59;1758847;80;21049;-79
2021/06/13 07:34:43;;;;;;;5.22;3.35;;;;;;;25.75;43.08;99041.58;1748325;80;21025;-78
2021/06/13 07:37:10;;;;;;;4.37;3.27;;;;;;;25.56;42.75;99053.34;1741775;80;21858;-79
2021/06/13 07:39:38;;;;;;;6.12;3.33;;;;;;;25.41;42.37;99050.08;1741389;80;21107;-81
2021/06/13 07:42:08;;;;;;;6.45;3.75;;;;;;;25.41;42.60;99046.55;1750976;81;21013;-81
2021/06/13 07:44:36;;;;;;;8.27;3.50;;;;;;;25.47;43.58;99037.77;1743353;80;21016;-79
2021/06/13 07:47:04;;;;;;;5.62;3.10;;;;;;;25.66;43.54;99031.88;1740517;80;21110;-81
2021/06/13 07:49:32;;;;;;;8.15;3.60;;;;;;;25.69;41.46;99042.29;1758865;80;21143;-82
2021/06/13 07:51:59;;;;;;;11.63;5.67;;;;;;;25.44;41.81;99036.75;1757177;80;20994;-80
2021/06/13 07:54:27;;;;;;;11.08;5.92;;;;;;;25.43;41.90;99036.44;1754443;81;21677;-79
2021/06/13 07:56:55;;;;;;;9.70;5.20;;;;;;;25.62;41.34;99040.51;1766976;80;21122;-81
2021/06/13 07:59:22;;;;;;;16.67;7.08;;;;;;;25.91;41.37;99042.50;1746101;80;21457;-79
2021/06/13 08:01:49;;;;;;;12.05;5.58;;;;;;;26.14;40.98;99033.84;1748266;80;21080;-79
2021/06/13 08:04:17;;;;;;;15.88;9.33;;;;;;;26.55;40.44;99032.09;1758373;80;21030;-78
2021/06/13 08:06:44;;;;;;;13.85;5.75;;;;;;;26.76;40.20;99034.55;1760222;80;21071;-80
2021/06/13 08:09:11;;;;;;;10.13;4.92;;;;;;;26.86;39.45;99039.14;1758996;80;21109;-81
2021/06/13 08:11:38;;;;;;;7.08;4.60;;;;;;;26.66;39.92;99038.03;1748769;80;21061;-81
2021/06/13 08:14:05;;;;;;;6.90;4.60;;;;;;;26.63;40.21;99033.02;1752720;81;21110;-79
2021/06/13 08:16:32;;;;;;;6.55;3.65;;;;;;;26.88;39.89;99030.34;1766093;80;21164;-78
2021/06/13 08:18:59;;;;;;;6.37;3.52;;;;;;;27.28;39.59;99037.58;1752711;81;21080;-82
2021/06/13 08:21:26;;;;;;;6.17;4.15;;;;;;;27.51;38.36;99036.57;1737674;80;21033;-80
2021/06/13 08:23:53;;;;;;;7.72;3.85;;;;;;;27.53;37.66;99042.63;1742681;81;21068;-81
2021/06/13 08:26:20;;;;;;;5.15;3.45;;;;;;;27.34;38.20;99046.80;1760847;81;21952;-80
2021/06/13 08:28:47;;;;;;;9.10;4.30;;;;;;;26.94;39.44;99052.55;1750781;81;21066;-80
2021/06/13 08:31:14;;;;;;;7.53;4.20;;;;;;;26.70;40.39;99052.33;1749267;81;21016;-80
2021/06/13 08:33:41;;;;;;;7.62;4.22;;;;;;;26.63;40.58;99054.63;1744313;80;21060;-79
2021/06/13 08:36:09;;;;;;;8.13;4.97;;;;;;;26.49;40.45;99050.86;1748215;81;21064;-86
2021/06/13 08:38:36;;;;;;;8.68;4.37;;;;;;;26.32;40.54;99050.21;1743123;80;21174;-85
2021/06/13 08:41:03;;;;;;;5.17;4.37;;;;;;;26.23;40.95;99054.02;1750866;80;21046;-82
2021/06/13 08:43:30;;;;;;;5.75;4.65;;;;;;;26.13;41.18;99048.86;1766043;81;21190;-82
2021/06/13 08:45:58;;;;;;;8.88;6.00;;;;;;;26.15;41.26;99054.91;1744116;80;21041;-84
2021/06/13 08:48:29;;;;;;;9.20;5.40;;;;;;;26.19;41.76;99050.83;1759509;80;21093;-83
2021/06/13 08:50:58;;;;;;;6.90;5.03;;;;;;;26.12;41.81;99046.68;1745191;81;21112;-81
2021/06/13 08:53:25;;;;;;;7.97;4.37;;;;;;;26.14;41.26;99040.59;1759532;80;21089;-85
2021/06/13 08:55:53;;;;;;;8.40;4.08;;;;;;;26.18;41.81;99046.95;1754579;81;21112;-82
2021/06/13 08:58:21;;;;;;;9.15;4.35;;;;;;;26.01;42.20;99051.16;1754333;80;21057;-78
2021/06/13 09:00:50;;;;;;;6.30;4.08;;;;;;;25.79;42.17;99053.34;1732564;81;21001;-76
2021/06/13 09:03:18;;;;;;;18.85;5.92;;;;;;;25.55;46.20;99057.91;1752675;80;21124;-76
2021/06/13 09:05:45;;;;;;;9.20;4.47;;;;;;;25.13;50.82;99055.11;1755340;81;21480;-78
2021/06/13 09:08:14;;;;;;;8.58;4.85;;;;;;;24.68;52.09;99066.06;1749330;80;21100;-78
2021/06/13 09:10:45;;;;;;;12.60;5.70;;;;;;;24.17;53.94;99065.48;1700829;83;21071;-79
2021/06/13 09:13:17;;;;;;;9.15;6.50;;;;;;;23.83;55.60;99059.78;1753814;80;21532;-76
2021/06/13 09:15:59;;;;;;;10.45;6.37;;;;;;;23.82;59.99;99044.67;1757496;80;21097;-76
2021/06/13 09:18:42;;;;;;;10.08;6.70;;;;;;;24.08;60.19;99039.09;1745852;80;21043;-74
2021/06/13 09:21:29;;;;;;;10.93;6.35;;;;;;;24.46;60.46;99034.82;1738066;80;21063;-75
2021/06/13 09:23:56;;;;;;;8.83;5.67;;;;;;;24.98;58.52;99035.31;1748374;80;21095;-74
2021/06/13 09:26:28;;;;;;;7.78;5.50;;;;;;;25.61;57.79;99034.28;1756141;81;21529;-74
2021/06/13 09:28:58;;;;;;;9.03;5.67;;;;;;;26.13;54.77;99035.37;1757795;80;21177;-74
2021/06/13 09:31:29;;;;;;;9.73;5.70;;;;;;;26.48;51.91;99053.22;1755511;80;21474;-74
2021/06/13 09:33:58;;;;;;;;;;;;;;;26.40;51.90;99047.41;1689499;84;21074;-75
2021/06/13 09:36:33;;;;;;;22.77;10.23;;;;;;;25.96;53.29;99067.06;1759048;80;20208;-73
2021/06/13 09:39:06;;;;;;;111.57;67.15;;;;;;;25.15;56.82;99095.35;1746623;80;21033;-73
2021/06/13 09:41:42;;;;;;;107.27;65.72;;;;;;;23.98;64.77;99130.70;1757727;80;21634;-73
2021/06/13 09:44:18;;;;;;;197.62;121.70;;;;;;;22.29;68.64;99132.33;1741949;80;21094;-73
2021/06/13 09:46:48;;;;;;;150.03;93.20;;;;;;;21.15;71.91;99115.91;1719958;80;21061;-74
2021/06/13 09:49:17;;;;;;;67.47;40.35;;;;;;;20.36;77.17;99103.80;1754054;80;26114;-73
2021/06/13 09:51:50;;;;;;;124.70;77.70;;;;;;;19.75;81.46;99100.96;1758555;80;21559;-75
2021/06/13 09:54:24;;;;;;;46.05;28.52;;;;;;;19.37;85.15;99099.92;1751218;80;21066;-75
2021/06/13 09:56:58;;;;;;;22.30;14.10;;;;;;;19.15;88.24;99098.81;1745518;80;21044;-74
2021/06/13 09:59:27;;;;;;;20.27;14.00;;;;;;;19.07;90.15;99096.34;1763150;80;21053;-72
2021/06/13 10:01:57;;;;;;;20.97;14.80;;;;;;;19.13;91.41;99092.27;1755977;80;21121;-74
2021/06/13 10:04:31;;;;;;;18.77;14.40;;;;;;;19.33;93.33;99089.16;1749358;80;21095;-75
2021/06/13 10:07:01;;;;;;;54.70;32.83;;;;;;;19.70;96.71;99099.20;1699635;84;21130;-75
2021/06/13 10:09:39;;;;;;;48.40;29.35;;;;;;;20.09;95.53;99099.19;1755135;80;21015;-75
2021/06/13 10:12:11;;;;;;;38.80;24.55;;;;;;;20.51;93.80;99094.30;1736951;80;21693;-74
2021/06/13 10:14:39;;;;;;;26.33;18.52;;;;;;;21.04;93.28;99095.52;1755279;80;21129;-76
2021/06/13 10:17:07;;;;;;;39.30;27.60;;;;;;;21.61;91.61;99098.02;1746442;80;21137;-74
2021/06/13 10:19:41;;;;;;;47.20;32.33;;;;;;;22.05;87.97;99094.56;1743739;80;21508;-74
2021/06/13 10:22:09;;;;;;;24.30;15.85;;;;;;;22.32;82.33;99099.82;1715401;82;21093;-74
2021/06/13 10:24:41;;;;;;;13.87;8.63;;;;;;;22.47;78.16;99099.23;1696234;83;21090;-77
2021/06/13 10:27:15;;;;;;;12.68;7.35;;;;;;;22.55;77.62;99101.48;1739195;80;21692;-76
2021/06/13 10:29:45;;;;;;;8.48;7.15;;;;;;;22.67;76.89;99102.05;1757008;81;20943;-76
2021/06/13 10:32:12;;;;;;;11.15;6.05;;;;;;;22.72;76.60;99098.88;1751551;80;21126;-77
2021/06/13 10:34:39;;;;;;;8.45;5.83;;;;;;;22.75;76.20;99092.70;1749366;80;20980;-76
2021/06/13 10:37:11;;;;;;;7.53;5.08;;;;;;;22.85;75.55;99092.58;1749398;81;21049;-77
2021/06/13 10:39:38;;;;;;;11.08;8.03;;;;;;;23.02;74.82;99097.53;1739344;80;21100;-76
2021/06/13 10:42:12;;;;;;;26.52;18.37;;;;;;;23.11;72.24;99103.28;1730523;81;21084;-75
2021/06/13 10:44:51;;;;;;;33.35;20.27;;;;;;;23.17;71.25;99109.86;1756040;81;21835;-76
2021/06/13 10:47:20;;;;;;;14.43;9.15;;;;;;;23.20;68.66;99108.19;1755700;81;21027;-77
2021/06/13 10:49:51;;;;;;;19.80;13.68;;;;;;;23.28;67.74;99114.08;1735669;81;21029;-77
2021/06/13 10:52:26;;;;;;;4.60;4.20;;;;;;;23.35;66.84;99113.75;1749543;81;21004;-79
2021/06/13 10:54:59;;;;;;;9.95;5.22;;;;;;;23.38;65.59;99110.77;1755613;81;21116;-77
2021/06/13 10:57:37;;;;;;;6.45;5.03;;;;;;;23.30;63.95;99117.44;1739208;81;21098;-78
2021/06/13 11:00:20;;;;;;;6.65;4.22;;;;;;;23.24;63.09;99130.52;1742218;81;21108;-79
2021/06/13 11:02:50;;;;;;;4.60;2.92;;;;;;;23.15;60.91;99130.16;1743831;81;21053;-78
2021/06/13 11:05:38;;;;;;;10.95;7.03;;;;;;;22.94;60.06;99143.12;1762988;81;21094;-79
2021/06/13 11:08:05;;;;;;;4.90;3.15;;;;;;;22.67;59.92;99150.34;1757041;80;21041;-78
2021/06/13 11:10:34;;;;;;;6.37;4.55;;;;;;;22.36;62.10;99141.43;1760616;81;21360;-76
2021/06/13 11:13:15;;;;;;;8.78;4.15;;;;;;;22.17;63.01;99140.22;1746824;81;21909;-78
2021/06/13 11:15:50;;;;;;;5.97;3.57;;;;;;;22.02;65.39;99142.63;1729952;81;20997;-75
2021/06/13 11:18:28;;;;;;;2.83;2.42;;;;;;;21.80;65.36;99150.62;1743922;81;21028;-74
2021/06/13 11:21:07;;;;;;;4.37;2.30;;;;;;;21.54;65.75;99147.34;1752687;81;21557;-74
2021/06/13 11:23:40;;;;;;;3.75;2.37;;;;;;;21.32;66.69;99157.93;1746298;81;21106;-74
2021/06/13 11:26:28;;;;;;;4.08;1.92;;;;;;;21.13;67.88;99162.89;1717313;81;21152;-75
2021/06/13 11:28:56;;;;;;;5.12;3.47;;;;;;;21.00;68.75;99161.05;1751409;81;21066;-75
2021/06/13 11:31:24;;;;;;;8.63;5.87;;;;;;;20.91;69.27;99155.23;1741146;81;22069;-75
2021/06/13 11:33:57;;;;;;;8.00;5.35;;;;;;;20.85;70.25;99155.34;1754317;81;21125;-74
2021/06/13 11:36:36;;;;;;;10.35;6.37;;;;;;;20.79;70.77;99143.03;1754999;81;21881;-75
2021/06/13 11:39:10;;;;;;;5.17;2.62;;;;;;;20.81;71.03;99136.55;1737456;81;21081;-76
2021/06/13 11:41:43;;;;;;;2.87;2.45;;;;;;;20.83;69.87;99141.26;1746405;80;21041;-74
2021/06/13 11:44:23;;;;;;;3.15;2.10;;;;;;;20.82;69.65;99152.09;1738055;81;21060;-77